sensor_id;sensor_type;location;lat;lon;timestamp;pressure;altitude;pressure_sealevel;temperature;humidity
78085;BME280;67541;47.710;17.732;2023-02-11T00:01:32;102491.53;;;-3.19;73.44
78085;BME280;67541;47.710;17.732;2023-02-11T00:03:58;102483.16;;;-3.06;73.11
78085;BME280;67541;47.710;17.732;2023-02-11T00:06:25;102486.66;;;-3.05;73.30
78085;BME280;67541;47.710;17.732;2023-02-11T00:08:52;102477.44;;;-3.15;73.56
78085;BME280;67541;47.710;17.732;2023-02-11T00:11:19;102478.69;;;-3.02;72.42
78085;BME280;67541;47.710;17.732;2023-02-11T00:13:46;102468.47;;;-2.87;71.44
78085;BME280;67541;47.710;17.732;2023-02-11T00:16:14;102469.47;;;-2.68;70.48
78085;BME280;67541;47.710;17.732;2023-02-11T00:18:40;102461.44;;;-2.63;70.04
78085;BME280;67541;47.710;17.732;2023-02-11T00:21:14;102472.12;;;-2.48;69.53
78085;BME280;67541;47.710;17.732;2023-02-11T00:23:41;102455.72;;;-2.31;68.89
78085;BME280;67541;47.710;17.732;2023-02-11T00:28:39;102468.25;;;-2.18;68.35
78085;BME280;67541;47.710;17.732;2023-02-11T00:31:04;102469.69;;;-2.11;67.98
78085;BME280;67541;47.710;17.732;2023-02-11T00:33:30;102457.91;;;-2.01;67.60
78085;BME280;67541;47.710;17.732;2023-02-11T00:35:55;102464.66;;;-1.95;67.45
78085;BME280;67541;47.710;17.732;2023-02-11T00:38:21;102456.66;;;-1.92;67.18
78085;BME280;67541;47.710;17.732;2023-02-11T00:40:47;102454.84;;;-1.90;67.03
78085;BME280;67541;47.710;17.732;2023-02-11T00:43:12;102455.94;;;-1.96;67.16
78085;BME280;67541;47.710;17.732;2023-02-11T00:45:38;102447.09;;;-1.93;67.08
78085;BME280;67541;47.710;17.732;2023-02-11T00:48:03;102441.94;;;-1.95;67.09
78085;BME280;67541;47.710;17.732;2023-02-11T00:50:28;102441.81;;;-1.92;66.92
78085;BME280;67541;47.710;17.732;2023-02-11T00:52:54;102448.16;;;-1.97;67.12
78085;BME280;67541;47.710;17.732;2023-02-11T00:55:19;102443.94;;;-2.01;67.25
78085;BME280;67541;47.710;17.732;2023-02-11T00:57:45;102438.94;;;-2.06;67.34
78085;BME280;67541;47.710;17.732;2023-02-11T01:00:11;102446.84;;;-2.07;67.37
78085;BME280;67541;47.710;17.732;2023-02-11T01:02:37;102433.87;;;-2.10;67.25
78085;BME280;67541;47.710;17.732;2023-02-11T01:05:02;102436.38;;;-2.07;67.34
78085;BME280;67541;47.710;17.732;2023-02-11T01:07:28;102441.66;;;-2.09;67.40
78085;BME280;67541;47.710;17.732;2023-02-11T01:09:53;102438.12;;;-2.08;67.35
78085;BME280;67541;47.710;17.732;2023-02-11T01:12:19;102442.72;;;-2.13;67.60
78085;BME280;67541;47.710;17.732;2023-02-11T01:14:44;102438.38;;;-2.14;67.71
78085;BME280;67541;47.710;17.732;2023-02-11T01:17:10;102429.38;;;-2.07;67.44
78085;BME280;67541;47.710;17.732;2023-02-11T01:19:36;102436.75;;;-1.96;67.01
78085;BME280;67541;47.710;17.732;2023-02-11T01:22:02;102427.84;;;-1.92;66.78
78085;BME280;67541;47.710;17.732;2023-02-11T01:24:28;102413.03;;;-1.93;66.48
78085;BME280;67541;47.710;17.732;2023-02-11T01:26:53;102426.78;;;-1.88;66.54
78085;BME280;67541;47.710;17.732;2023-02-11T01:29:19;102424.13;;;-1.87;66.47
78085;BME280;67541;47.710;17.732;2023-02-11T01:31:44;102420.78;;;-1.90;66.59
78085;BME280;67541;47.710;17.732;2023-02-11T01:34:10;102423.59;;;-1.95;66.82
78085;BME280;67541;47.710;17.732;2023-02-11T01:36:35;102425.44;;;-1.97;66.87
78085;BME280;67541;47.710;17.732;2023-02-11T01:39:00;102418.62;;;-2.01;67.08
78085;BME280;67541;47.710;17.732;2023-02-11T01:41:26;102417.97;;;-2.06;67.24
78085;BME280;67541;47.710;17.732;2023-02-11T01:43:51;102423.28;;;-2.07;67.33
78085;BME280;67541;47.710;17.732;2023-02-11T01:46:36;102424.38;;;-2.13;67.50
78085;BME280;67541;47.710;17.732;2023-02-11T01:49:06;102419.87;;;-2.09;67.39
78085;BME280;67541;47.710;17.732;2023-02-11T01:52:32;102421.97;;;-2.17;67.52
78085;BME280;67541;47.710;17.732;2023-02-11T01:54:35;102421.03;;;-2.16;67.53
78085;BME280;67541;47.710;17.732;2023-02-11T01:57:23;102414.09;;;-2.17;67.57
78085;BME280;67541;47.710;17.732;2023-02-11T02:00:22;102417.97;;;-2.26;67.78
78085;BME280;67541;47.710;17.732;2023-02-11T02:10:53;102421.22;;;-2.41;68.43
78085;BME280;67541;47.710;17.732;2023-02-11T02:13:21;102421.75;;;-2.53;68.68
78085;BME280;67541;47.710;17.732;2023-02-11T02:15:52;102422.06;;;-2.60;68.81
78085;BME280;67541;47.710;17.732;2023-02-11T02:38:01;102391.25;;;-2.75;69.07
78085;BME280;67541;47.710;17.732;2023-02-11T02:40:40;102391.53;;;-2.61;68.67
78085;BME280;67541;47.710;17.732;2023-02-11T02:43:08;102396.28;;;-2.49;68.18
78085;BME280;67541;47.710;17.732;2023-02-11T02:45:34;102376.81;;;-2.42;67.75
78085;BME280;67541;47.710;17.732;2023-02-11T02:48:00;102385.38;;;-2.39;67.78
78085;BME280;67541;47.710;17.732;2023-02-11T02:50:29;102387.00;;;-2.36;67.63
78085;BME280;67541;47.710;17.732;2023-02-11T02:55:51;102380.38;;;-2.45;67.83
78085;BME280;67541;47.710;17.732;2023-02-11T03:03:46;102379.81;;;-2.51;68.02
78085;BME280;67541;47.710;17.732;2023-02-11T03:06:29;102376.94;;;-2.45;67.78
78085;BME280;67541;47.710;17.732;2023-02-11T03:09:03;102369.00;;;-2.44;67.68
78085;BME280;67541;47.710;17.732;2023-02-11T03:11:30;102355.06;;;-2.44;67.44
78085;BME280;67541;47.710;17.732;2023-02-11T03:13:59;102362.78;;;-2.41;67.41
78085;BME280;67541;47.710;17.732;2023-02-11T03:16:27;102354.59;;;-2.34;67.14
78085;BME280;67541;47.710;17.732;2023-02-11T03:19:02;102354.94;;;-2.41;67.31
78085;BME280;67541;47.710;17.732;2023-02-11T03:21:31;102353.75;;;-2.34;67.07
78085;BME280;67541;47.710;17.732;2023-02-11T03:24:02;102345.94;;;-2.36;67.09
78085;BME280;67541;47.710;17.732;2023-02-11T03:26:37;102350.34;;;-2.36;67.10
78085;BME280;67541;47.710;17.732;2023-02-11T03:31:55;102343.22;;;-2.33;66.93
78085;BME280;67541;47.710;17.732;2023-02-11T03:34:56;102341.87;;;-2.23;66.66
78085;BME280;67541;47.710;17.732;2023-02-11T03:37:39;102348.19;;;-2.27;66.74
78085;BME280;67541;47.710;17.732;2023-02-11T03:40:14;102339.91;;;-2.18;66.45
78085;BME280;67541;47.710;17.732;2023-02-11T03:42:53;102338.87;;;-2.14;66.30
78085;BME280;67541;47.710;17.732;2023-02-11T03:45:22;102331.94;;;-2.15;66.35
78085;BME280;67541;47.710;17.732;2023-02-11T03:47:54;102330.19;;;-2.14;66.24
78085;BME280;67541;47.710;17.732;2023-02-11T03:50:21;102330.44;;;-2.20;66.45
78085;BME280;67541;47.710;17.732;2023-02-11T03:52:48;102323.50;;;-2.21;66.49
78085;BME280;67541;47.710;17.732;2023-02-11T03:55:17;102321.34;;;-2.32;66.71
78085;BME280;67541;47.710;17.732;2023-02-11T03:57:43;102315.94;;;-2.27;66.67
78085;BME280;67541;47.710;17.732;2023-02-11T04:00:09;102318.37;;;-2.24;66.55
78085;BME280;67541;47.710;17.732;2023-02-11T04:02:36;102314.00;;;-2.24;66.46
78085;BME280;67541;47.710;17.732;2023-02-11T04:05:04;102318.13;;;-2.18;66.35
78085;BME280;67541;47.710;17.732;2023-02-11T04:07:31;102317.41;;;-2.22;66.40
78085;BME280;67541;47.710;17.732;2023-02-11T04:09:56;102314.78;;;-2.22;66.42
78085;BME280;67541;47.710;17.732;2023-02-11T04:12:21;102306.22;;;-2.25;66.51
78085;BME280;67541;47.710;17.732;2023-02-11T04:14:47;102306.56;;;-2.33;66.80
78085;BME280;67541;47.710;17.732;2023-02-11T04:17:12;102306.25;;;-2.45;67.13
78085;BME280;67541;47.710;17.732;2023-02-11T04:19:38;102293.56;;;-2.54;67.52
78085;BME280;67541;47.710;17.732;2023-02-11T04:22:05;102311.28;;;-2.61;67.98
78085;BME280;67541;47.710;17.732;2023-02-11T04:24:30;102288.19;;;-2.71;68.64
78085;BME280;67541;47.710;17.732;2023-02-11T04:26:56;102297.34;;;-2.81;68.68
78085;BME280;67541;47.710;17.732;2023-02-11T04:29:22;102288.72;;;-2.83;68.99
78085;BME280;67541;47.710;17.732;2023-02-11T04:31:48;102286.44;;;-2.91;69.15
78085;BME280;67541;47.710;17.732;2023-02-11T04:34:13;102286.16;;;-3.05;69.51
78085;BME280;67541;47.710;17.732;2023-02-11T04:36:39;102287.63;;;-3.19;69.96
78085;BME280;67541;47.710;17.732;2023-02-11T04:39:05;102278.56;;;-3.32;70.52
78085;BME280;67541;47.710;17.732;2023-02-11T04:41:30;102286.00;;;-3.43;70.99
78085;BME280;67541;47.710;17.732;2023-02-11T04:43:56;102289.94;;;-3.55;71.59
78085;BME280;67541;47.710;17.732;2023-02-11T04:46:21;102296.66;;;-3.71;72.10
78085;BME280;67541;47.710;17.732;2023-02-11T04:48:47;102294.53;;;-3.83;72.45
78085;BME280;67541;47.710;17.732;2023-02-11T04:51:12;102289.12;;;-3.78;73.33
78085;BME280;67541;47.710;17.732;2023-02-11T04:53:38;102284.72;;;-3.99;73.68
78085;BME280;67541;47.710;17.732;2023-02-11T04:56:03;102288.41;;;-4.05;74.27
78085;BME280;67541;47.710;17.732;2023-02-11T04:58:29;102275.88;;;-4.18;74.68
78085;BME280;67541;47.710;17.732;2023-02-11T05:00:54;102285.44;;;-4.19;74.65
78085;BME280;67541;47.710;17.732;2023-02-11T05:03:19;102290.78;;;-4.22;74.65
78085;BME280;67541;47.710;17.732;2023-02-11T05:05:45;102276.25;;;-4.29;75.04
78085;BME280;67541;47.710;17.732;2023-02-11T05:08:11;102273.87;;;-4.35;75.04
78085;BME280;67541;47.710;17.732;2023-02-11T05:10:36;102280.87;;;-4.37;75.09
78085;BME280;67541;47.710;17.732;2023-02-11T05:13:02;102278.56;;;-4.44;75.41
78085;BME280;67541;47.710;17.732;2023-02-11T05:15:28;102275.31;;;-4.51;75.49
78085;BME280;67541;47.710;17.732;2023-02-11T05:17:54;102278.09;;;-4.55;75.72
78085;BME280;67541;47.710;17.732;2023-02-11T05:20:20;102275.50;;;-4.55;75.91
78085;BME280;67541;47.710;17.732;2023-02-11T05:22:46;102279.53;;;-4.47;75.96
78085;BME280;67541;47.710;17.732;2023-02-11T05:25:11;102297.84;;;-4.48;76.06
78085;BME280;67541;47.710;17.732;2023-02-11T05:27:37;102262.50;;;-4.57;75.77
78085;BME280;67541;47.710;17.732;2023-02-11T05:30:03;102300.06;;;-4.38;75.66
78085;BME280;67541;47.710;17.732;2023-02-11T05:32:29;102298.16;;;-4.33;75.58
78085;BME280;67541;47.710;17.732;2023-02-11T05:34:54;102301.56;;;-4.31;75.65
78085;BME280;67541;47.710;17.732;2023-02-11T05:37:20;102297.19;;;-4.30;75.89
78085;BME280;67541;47.710;17.732;2023-02-11T05:39:45;102294.63;;;-4.32;75.96
78085;BME280;67541;47.710;17.732;2023-02-11T05:42:10;102295.84;;;-4.42;76.08
78085;BME280;67541;47.710;17.732;2023-02-11T05:44:36;102296.00;;;-4.45;76.18
78085;BME280;67541;47.710;17.732;2023-02-11T05:47:01;102286.28;;;-4.41;76.26
78085;BME280;67541;47.710;17.732;2023-02-11T05:49:27;102290.53;;;-4.39;76.45
78085;BME280;67541;47.710;17.732;2023-02-11T05:51:52;102293.94;;;-4.37;76.46
78085;BME280;67541;47.710;17.732;2023-02-11T05:54:17;102289.53;;;-4.35;76.44
78085;BME280;67541;47.710;17.732;2023-02-11T05:56:43;102285.28;;;-4.37;76.53
78085;BME280;67541;47.710;17.732;2023-02-11T05:59:08;102284.31;;;-4.35;76.57
78085;BME280;67541;47.710;17.732;2023-02-11T06:01:36;102286.78;;;-4.32;76.15
78085;BME280;67541;47.710;17.732;2023-02-11T06:04:01;102284.19;;;-4.32;76.07
78085;BME280;67541;47.710;17.732;2023-02-11T06:06:27;102283.22;;;-4.29;75.98
78085;BME280;67541;47.710;17.732;2023-02-11T06:08:52;102284.03;;;-4.27;76.21
78085;BME280;67541;47.710;17.732;2023-02-11T06:11:17;102276.84;;;-4.21;76.60
78085;BME280;67541;47.710;17.732;2023-02-11T06:13:44;102270.50;;;-4.15;76.79
78085;BME280;67541;47.710;17.732;2023-02-11T06:16:09;102279.78;;;-4.07;76.26
78085;BME280;67541;47.710;17.732;2023-02-11T06:18:35;102266.59;;;-4.04;75.85
78085;BME280;67541;47.710;17.732;2023-02-11T06:21:00;102280.03;;;-3.91;75.57
78085;BME280;67541;47.710;17.732;2023-02-11T06:23:26;102273.22;;;-3.72;75.16
78085;BME280;67541;47.710;17.732;2023-02-11T06:25:52;102265.88;;;-3.63;74.74
78085;BME280;67541;47.710;17.732;2023-02-11T06:28:18;102262.59;;;-3.46;74.14
78085;BME280;67541;47.710;17.732;2023-02-11T06:30:43;102262.44;;;-3.22;73.22
78085;BME280;67541;47.710;17.732;2023-02-11T06:33:08;102261.31;;;-2.95;72.17
78085;BME280;67541;47.710;17.732;2023-02-11T06:35:34;102266.66;;;-2.78;71.63
78085;BME280;67541;47.710;17.732;2023-02-11T06:38:02;102260.53;;;-2.57;70.58
78085;BME280;67541;47.710;17.732;2023-02-11T06:40:27;102258.78;;;-2.38;69.77
78085;BME280;67541;47.710;17.732;2023-02-11T06:42:52;102258.91;;;-2.21;68.99
78085;BME280;67541;47.710;17.732;2023-02-11T06:45:18;102264.00;;;-1.99;68.17
78085;BME280;67541;47.710;17.732;2023-02-11T06:47:44;102261.72;;;-1.88;67.97
78085;BME280;67541;47.710;17.732;2023-02-11T06:50:12;102259.44;;;-1.77;67.42
78085;BME280;67541;47.710;17.732;2023-02-11T06:52:38;102253.87;;;-1.70;67.24
78085;BME280;67541;47.710;17.732;2023-02-11T06:55:04;102263.00;;;-1.60;66.66
78085;BME280;67541;47.710;17.732;2023-02-11T06:57:30;102248.59;;;-1.51;66.73
78085;BME280;67541;47.710;17.732;2023-02-11T06:59:55;102251.84;;;-1.46;66.55
78085;BME280;67541;47.710;17.732;2023-02-11T07:02:21;102249.63;;;-1.37;66.12
78085;BME280;67541;47.710;17.732;2023-02-11T07:04:46;102249.94;;;-1.26;65.85
78085;BME280;67541;47.710;17.732;2023-02-11T07:07:12;102248.66;;;-1.17;65.44
78085;BME280;67541;47.710;17.732;2023-02-11T07:09:37;102246.50;;;-1.09;65.46
78085;BME280;67541;47.710;17.732;2023-02-11T07:12:03;102233.06;;;-1.03;65.13
78085;BME280;67541;47.710;17.732;2023-02-11T07:14:28;102227.59;;;-0.99;65.28
78085;BME280;67541;47.710;17.732;2023-02-11T07:16:53;102221.19;;;-0.93;64.98
78085;BME280;67541;47.710;17.732;2023-02-11T07:19:19;102225.28;;;-0.88;64.82
78085;BME280;67541;47.710;17.732;2023-02-11T07:21:44;102219.63;;;-0.80;64.75
78085;BME280;67541;47.710;17.732;2023-02-11T07:24:10;102221.84;;;-0.73;64.53
78085;BME280;67541;47.710;17.732;2023-02-11T07:26:35;102214.84;;;-0.72;64.51
78085;BME280;67541;47.710;17.732;2023-02-11T07:29:01;102229.78;;;-0.57;64.14
78085;BME280;67541;47.710;17.732;2023-02-11T07:31:28;102223.37;;;-0.52;64.06
78085;BME280;67541;47.710;17.732;2023-02-11T07:33:56;102221.19;;;-0.44;63.86
78085;BME280;67541;47.710;17.732;2023-02-11T07:36:22;102220.78;;;-0.36;63.59
78085;BME280;67541;47.710;17.732;2023-02-11T07:38:48;102220.37;;;-0.29;63.13
78085;BME280;67541;47.710;17.732;2023-02-11T07:41:16;102219.91;;;-0.20;63.07
78085;BME280;67541;47.710;17.732;2023-02-11T07:43:43;102227.19;;;-0.09;62.80
78085;BME280;67541;47.710;17.732;2023-02-11T07:46:11;102224.22;;;-0.03;62.66
78085;BME280;67541;47.710;17.732;2023-02-11T07:48:36;102218.41;;;0.08;62.39
78085;BME280;67541;47.710;17.732;2023-02-11T07:53:31;102234.69;;;0.14;61.83
78085;BME280;67541;47.710;17.732;2023-02-11T07:55:57;102229.81;;;0.22;61.98
78085;BME280;67541;47.710;17.732;2023-02-11T07:58:22;102229.50;;;0.28;61.88
78085;BME280;67541;47.710;17.732;2023-02-11T08:00:48;102231.94;;;0.31;61.80
78085;BME280;67541;47.710;17.732;2023-02-11T08:03:13;102226.44;;;0.36;61.16
78085;BME280;67541;47.710;17.732;2023-02-11T08:05:38;102233.22;;;0.39;61.13
78085;BME280;67541;47.710;17.732;2023-02-11T08:08:04;102223.37;;;0.43;60.88
78085;BME280;67541;47.710;17.732;2023-02-11T08:10:29;102225.75;;;0.47;60.76
78085;BME280;67541;47.710;17.732;2023-02-11T08:12:55;102230.75;;;0.52;60.85
78085;BME280;67541;47.710;17.732;2023-02-11T08:15:20;102185.22;;;0.36;60.58
78085;BME280;67541;47.710;17.732;2023-02-11T08:17:45;102222.16;;;0.64;60.18
78085;BME280;67541;47.710;17.732;2023-02-11T08:20:11;102227.25;;;0.67;60.08
78085;BME280;67541;47.710;17.732;2023-02-11T08:22:36;102208.47;;;0.73;59.59
78085;BME280;67541;47.710;17.732;2023-02-11T08:25:02;102208.22;;;0.78;59.46
78085;BME280;67541;47.710;17.732;2023-02-11T08:27:27;102206.75;;;0.88;58.88
78085;BME280;67541;47.710;17.732;2023-02-11T08:29:53;102211.28;;;1.00;58.76
78085;BME280;67541;47.710;17.732;2023-02-11T08:32:19;102204.09;;;1.17;58.86
78085;BME280;67541;47.710;17.732;2023-02-11T08:34:44;102214.25;;;1.23;57.95
78085;BME280;67541;47.710;17.732;2023-02-11T08:37:10;102208.69;;;1.28;57.88
78085;BME280;67541;47.710;17.732;2023-02-11T08:39:36;102214.19;;;1.39;57.73
78085;BME280;67541;47.710;17.732;2023-02-11T08:42:01;102220.59;;;1.49;57.55
78085;BME280;67541;47.710;17.732;2023-02-11T08:44:27;102215.72;;;1.57;57.33
78085;BME280;67541;47.710;17.732;2023-02-11T08:46:53;102215.88;;;1.68;56.73
78085;BME280;67541;47.710;17.732;2023-02-11T08:49:19;102217.56;;;1.69;56.49
78085;BME280;67541;47.710;17.732;2023-02-11T08:51:45;102215.59;;;1.72;56.35
78085;BME280;67541;47.710;17.732;2023-02-11T08:54:11;102223.97;;;1.79;55.92
78085;BME280;67541;47.710;17.732;2023-02-11T08:56:37;102226.41;;;1.82;55.70
78085;BME280;67541;47.710;17.732;2023-02-11T08:59:03;102227.06;;;1.99;55.87
78085;BME280;67541;47.710;17.732;2023-02-11T09:01:30;102230.00;;;1.95;55.59
78085;BME280;67541;47.710;17.732;2023-02-11T09:03:56;102222.72;;;2.12;55.55
78085;BME280;67541;47.710;17.732;2023-02-11T09:06:24;102205.78;;;2.02;55.26
78085;BME280;67541;47.710;17.732;2023-02-11T09:08:51;102204.47;;;1.95;55.09
78085;BME280;67541;47.710;17.732;2023-02-11T09:11:20;102214.34;;;1.92;55.50
78085;BME280;67541;47.710;17.732;2023-02-11T09:13:46;102208.63;;;1.85;55.40
78085;BME280;67541;47.710;17.732;2023-02-11T09:16:19;102212.13;;;1.86;55.73
78085;BME280;67541;47.710;17.732;2023-02-11T09:18:46;102204.00;;;1.89;55.40
78085;BME280;67541;47.710;17.732;2023-02-11T09:21:12;102211.25;;;1.85;55.83
78085;BME280;67541;47.710;17.732;2023-02-11T09:23:38;102206.47;;;1.78;55.89
78085;BME280;67541;47.710;17.732;2023-02-11T09:26:13;102203.34;;;1.85;55.72
78085;BME280;67541;47.710;17.732;2023-02-11T09:28:39;102200.81;;;1.84;55.98
78085;BME280;67541;47.710;17.732;2023-02-11T09:31:06;102194.06;;;1.80;55.78
78085;BME280;67541;47.710;17.732;2023-02-11T09:33:32;102185.44;;;2.04;55.73
78085;BME280;67541;47.710;17.732;2023-02-11T09:36:02;102188.69;;;2.22;55.05
78085;BME280;67541;47.710;17.732;2023-02-11T09:38:28;102183.56;;;2.59;54.23
78085;BME280;67541;47.710;17.732;2023-02-11T09:40:53;102178.75;;;2.78;54.09
78085;BME280;67541;47.710;17.732;2023-02-11T09:43:31;102172.56;;;3.04;53.80
78085;BME280;67541;47.710;17.732;2023-02-11T09:45:59;102177.25;;;3.13;53.17
78085;BME280;67541;47.710;17.732;2023-02-11T09:48:24;102176.50;;;3.49;52.27
78085;BME280;67541;47.710;17.732;2023-02-11T09:50:53;102177.34;;;3.62;52.34
78085;BME280;67541;47.710;17.732;2023-02-11T09:53:25;102171.41;;;3.46;52.64
78085;BME280;67541;47.710;17.732;2023-02-11T09:55:53;102178.81;;;3.41;52.63
78085;BME280;67541;47.710;17.732;2023-02-11T09:58:30;102172.47;;;3.56;52.80
78085;BME280;67541;47.710;17.732;2023-02-11T10:01:06;102172.47;;;3.56;52.67
78085;BME280;67541;47.710;17.732;2023-02-11T10:17:26;102168.16;;;3.17;53.70
78085;BME280;67541;47.710;17.732;2023-02-11T10:22:54;102153.53;;;3.37;53.32
78085;BME280;67541;47.710;17.732;2023-02-11T10:27:54;102141.81;;;3.53;53.33
78085;BME280;67541;47.710;17.732;2023-02-11T10:30:31;102150.06;;;3.49;52.76
78085;BME280;67541;47.710;17.732;2023-02-11T10:33:05;102147.22;;;3.88;52.10
78085;BME280;67541;47.710;17.732;2023-02-11T10:35:37;102142.34;;;3.94;51.81
78085;BME280;67541;47.710;17.732;2023-02-11T10:38:02;102148.50;;;4.18;51.65
78085;BME280;67541;47.710;17.732;2023-02-11T10:40:30;102154.59;;;4.31;50.80
78085;BME280;67541;47.710;17.732;2023-02-11T10:43:03;102144.00;;;4.31;50.73
78085;BME280;67541;47.710;17.732;2023-02-11T10:45:49;102145.41;;;4.48;50.88
78085;BME280;67541;47.710;17.732;2023-02-11T10:48:45;102134.34;;;4.54;50.14
78085;BME280;67541;47.710;17.732;2023-02-11T10:51:32;102136.69;;;4.69;50.23
78085;BME280;67541;47.710;17.732;2023-02-11T10:56:37;102118.81;;;4.84;49.61
78085;BME280;67541;47.710;17.732;2023-02-11T10:59:19;102111.63;;;4.97;49.22
78085;BME280;67541;47.710;17.732;2023-02-11T11:01:52;102111.09;;;4.81;49.27
78085;BME280;67541;47.710;17.732;2023-02-11T11:04:39;102105.16;;;5.23;48.47
78085;BME280;67541;47.710;17.732;2023-02-11T11:07:28;102099.56;;;4.93;48.60
78085;BME280;67541;47.710;17.732;2023-02-11T11:10:25;102111.63;;;5.19;48.38
78085;BME280;67541;47.710;17.732;2023-02-11T11:12:51;102095.69;;;4.86;48.60
78085;BME280;67541;47.710;17.732;2023-02-11T11:15:30;102091.37;;;4.85;49.00
78085;BME280;67541;47.710;17.732;2023-02-11T11:18:15;102082.13;;;4.90;48.94
78085;BME280;67541;47.710;17.732;2023-02-11T11:23:21;102074.63;;;4.84;49.04
78085;BME280;67541;47.710;17.732;2023-02-11T11:26:07;102071.16;;;4.84;48.91
78085;BME280;67541;47.710;17.732;2023-02-11T11:29:00;102073.69;;;4.96;48.69
78085;BME280;67541;47.710;17.732;2023-02-11T11:31:29;102064.44;;;5.02;48.66
78085;BME280;67541;47.710;17.732;2023-02-11T11:33:57;102053.31;;;4.86;49.08
78085;BME280;67541;47.710;17.732;2023-02-11T11:36:33;102049.25;;;5.26;48.32
78085;BME280;67541;47.710;17.732;2023-02-11T11:39:02;102048.88;;;5.30;48.48
78085;BME280;67541;47.710;17.732;2023-02-11T11:41:35;102053.81;;;5.24;48.45
78085;BME280;67541;47.710;17.732;2023-02-11T11:44:13;102054.56;;;5.26;48.63
78085;BME280;67541;47.710;17.732;2023-02-11T11:46:43;102042.38;;;5.23;48.71
78085;BME280;67541;47.710;17.732;2023-02-11T11:51:44;102035.69;;;5.73;48.02
78085;BME280;67541;47.710;17.732;2023-02-11T11:54:12;102034.47;;;5.77;47.73
78085;BME280;67541;47.710;17.732;2023-02-11T11:56:48;102020.37;;;5.87;46.64
78085;BME280;67541;47.710;17.732;2023-02-11T11:59:14;102009.87;;;6.58;45.26
78085;BME280;67541;47.710;17.732;2023-02-11T12:02:04;102005.19;;;6.92;44.24
78085;BME280;67541;47.710;17.732;2023-02-11T12:07:49;101992.69;;;6.83;43.69
78085;BME280;67541;47.710;17.732;2023-02-11T12:15:41;101986.22;;;7.06;42.74
78085;BME280;67541;47.710;17.732;2023-02-11T12:23:50;101979.16;;;6.45;44.21
78085;BME280;67541;47.710;17.732;2023-02-11T12:26:23;101967.41;;;6.68;44.31
78085;BME280;67541;47.710;17.732;2023-02-11T12:29:14;101965.50;;;6.49;44.21
78085;BME280;67541;47.710;17.732;2023-02-11T12:32:06;101957.44;;;7.20;43.26
78085;BME280;67541;47.710;17.732;2023-02-11T12:40:22;101939.34;;;9.03;40.26
78085;BME280;67541;47.710;17.732;2023-02-11T12:46:04;101929.94;;;9.70;38.57
78085;BME280;67541;47.710;17.732;2023-02-11T12:48:51;101930.50;;;10.34;37.83
78085;BME280;67541;47.710;17.732;2023-02-11T12:51:28;101929.94;;;10.23;37.51
78085;BME280;67541;47.710;17.732;2023-02-11T12:54:16;101914.81;;;9.44;39.10
78085;BME280;67541;47.710;17.732;2023-02-11T12:56:53;101907.66;;;10.40;37.69
78085;BME280;67541;47.710;17.732;2023-02-11T13:02:13;101911.19;;;9.18;39.50
78085;BME280;67541;47.710;17.732;2023-02-11T13:04:47;101910.31;;;9.44;39.56
78085;BME280;67541;47.710;17.732;2023-02-11T13:07:18;101914.56;;;9.20;39.61
78085;BME280;67541;47.710;17.732;2023-02-11T13:12:37;101914.25;;;8.69;39.90
78085;BME280;67541;47.710;17.732;2023-02-11T13:15:24;101914.94;;;8.15;40.55
78085;BME280;67541;47.710;17.732;2023-02-11T13:18:03;101899.41;;;7.82;41.20
78085;BME280;67541;47.710;17.732;2023-02-11T13:23:10;101897.72;;;7.72;41.57
78085;BME280;67541;47.710;17.732;2023-02-11T13:25:53;101901.63;;;7.77;41.42
78085;BME280;67541;47.710;17.732;2023-02-11T13:30:51;101892.53;;;7.70;41.85
78085;BME280;67541;47.710;17.732;2023-02-11T13:33:31;101884.41;;;7.62;42.20
78085;BME280;67541;47.710;17.732;2023-02-11T13:38:26;101882.88;;;7.69;42.14
78085;BME280;67541;47.710;17.732;2023-02-11T13:41:29;101878.81;;;7.84;42.00
78085;BME280;67541;47.710;17.732;2023-02-11T13:44:19;101880.03;;;7.99;41.57
78085;BME280;67541;47.710;17.732;2023-02-11T13:47:04;101880.78;;;7.82;41.81
78085;BME280;67541;47.710;17.732;2023-02-11T13:49:39;101894.22;;;7.90;41.85
78085;BME280;67541;47.710;17.732;2023-02-11T13:52:20;101889.03;;;7.98;41.50
78085;BME280;67541;47.710;17.732;2023-02-11T13:54:49;101893.38;;;7.80;41.88
78085;BME280;67541;47.710;17.732;2023-02-11T14:02:33;101907.53;;;7.52;42.33
78085;BME280;67541;47.710;17.732;2023-02-11T14:05:30;101908.06;;;7.37;42.74
78085;BME280;67541;47.710;17.732;2023-02-11T14:11:07;101910.53;;;7.10;43.38
78085;BME280;67541;47.710;17.732;2023-02-11T14:16:22;101897.53;;;7.07;43.77
78085;BME280;67541;47.710;17.732;2023-02-11T14:21:16;101902.84;;;7.07;43.83
78085;BME280;67541;47.710;17.732;2023-02-11T14:23:44;101905.31;;;6.99;44.13
78085;BME280;67541;47.710;17.732;2023-02-11T14:28:47;101904.87;;;6.94;44.39
78085;BME280;67541;47.710;17.732;2023-02-11T14:31:21;101886.59;;;7.00;44.38
78085;BME280;67541;47.710;17.732;2023-02-11T14:36:57;101888.56;;;7.08;44.50
78085;BME280;67541;47.710;17.732;2023-02-11T14:42:05;101890.06;;;6.91;44.88
78085;BME280;67541;47.710;17.732;2023-02-11T14:44:38;101886.25;;;6.84;45.12
78085;BME280;67541;47.710;17.732;2023-02-11T14:47:04;101900.22;;;6.77;45.29
78085;BME280;67541;47.710;17.732;2023-02-11T14:49:32;101893.34;;;6.74;45.44
78085;BME280;67541;47.710;17.732;2023-02-11T14:52:06;101891.78;;;6.72;45.36
78085;BME280;67541;47.710;17.732;2023-02-11T14:54:41;101857.75;;;6.47;45.59
78085;BME280;67541;47.710;17.732;2023-02-11T14:57:15;101877.78;;;6.60;45.74
78085;BME280;67541;47.710;17.732;2023-02-11T14:59:57;101867.28;;;6.59;45.69
78085;BME280;67541;47.710;17.732;2023-02-11T15:02:33;101864.06;;;6.55;45.96
78085;BME280;67541;47.710;17.732;2023-02-11T15:05:18;101873.41;;;6.50;46.13
78085;BME280;67541;47.710;17.732;2023-02-11T15:07:54;101866.81;;;6.44;46.40